createdAt,value
2018-12-04T00:00:04.703Z,9.70
2018-12-04T00:01:04.922Z,9.70
2018-12-04T00:02:07.608Z,9.70
2018-12-04T00:03:05.505Z,9.70
2018-12-04T00:04:08.148Z,9.70
2018-12-04T00:05:05.094Z,9.70
2018-12-04T00:06:05.411Z,9.70
2018-12-04T00:07:05.836Z,9.70
2018-12-04T00:08:05.033Z,9.70
2018-12-04T00:09:05.206Z,9.70
2018-12-04T00:10:07.827Z,9.70
2018-12-04T00:11:04.852Z,9.70
2018-12-04T00:12:05.005Z,9.60
2018-12-04T00:13:07.579Z,9.70
2018-12-04T00:14:05.580Z,9.60
2018-12-04T00:15:07.167Z,9.60
2018-12-04T00:16:11.715Z,9.60
2018-12-04T00:17:05.761Z,9.60
2018-12-04T00:18:04.953Z,9.60
2018-12-04T00:19:07.544Z,9.60
2018-12-04T00:20:05.485Z,9.60
2018-12-04T00:21:05.641Z,9.60
2018-12-04T00:22:04.803Z,9.60
2018-12-04T00:23:04.944Z,9.60
2018-12-04T00:24:05.012Z,9.60
2018-12-04T00:25:05.153Z,9.60
2018-12-04T00:26:05.314Z,9.60
2018-12-04T00:27:05.446Z,9.60
2018-12-04T00:28:04.752Z,9.50
2018-12-04T00:29:05.213Z,9.50
2018-12-04T00:30:05.239Z,9.50
2018-12-04T00:31:08.007Z,9.50
2018-12-04T00:32:04.952Z,9.50
2018-12-04T00:33:05.133Z,9.50
2018-12-04T00:34:05.403Z,9.50
2018-12-04T00:35:05.507Z,9.50
2018-12-04T00:36:05.521Z,9.50
2018-12-04T00:37:05.645Z,9.50
2018-12-04T00:38:04.773Z,9.50
2018-12-04T00:39:04.979Z,9.40
2018-12-04T00:40:05.199Z,9.50
2018-12-04T00:41:05.374Z,9.40
2018-12-04T00:42:05.511Z,9.50
2018-12-04T00:43:05.635Z,9.40
2018-12-04T00:44:07.737Z,9.40
2018-12-04T00:45:07.259Z,9.40
2018-12-04T00:46:07.791Z,9.40
2018-12-04T00:47:04.746Z,9.40
2018-12-04T00:48:04.820Z,9.40
2018-12-04T00:49:05.175Z,9.40
2018-12-04T00:50:05.733Z,9.30
2018-12-04T00:51:04.892Z,9.30
2018-12-04T00:52:05.013Z,9.40
2018-12-04T00:53:07.800Z,9.20
2018-12-04T00:54:04.841Z,9.30
2018-12-04T00:55:05.521Z,9.30
2018-12-04T00:56:07.304Z,9.20
2018-12-04T00:57:05.294Z,9.20
2018-12-04T00:58:07.961Z,9.20
2018-12-04T00:59:05.022Z,9.20
2018-12-04T01:00:05.143Z,9.20
2018-12-04T01:01:05.211Z,9.20
2018-12-04T01:02:05.362Z,9.10
2018-12-04T01:03:07.952Z,9.10
2018-12-04T01:04:04.896Z,9.10
2018-12-04T01:05:04.964Z,9.10
2018-12-04T01:06:05.030Z,9.10
2018-12-04T01:07:11.769Z,9.10
2018-12-04T01:08:05.077Z,9.10
2018-12-04T01:09:07.699Z,9.00
2018-12-04T01:10:05.611Z,9.10
2018-12-04T01:11:04.817Z,9.00
2018-12-04T01:12:05.239Z,9.10
2018-12-04T01:13:05.640Z,9.10
2018-12-04T01:14:04.813Z,9.00
2018-12-04T01:15:07.680Z,9.00
2018-12-04T01:16:04.785Z,9.00
2018-12-04T01:17:04.874Z,9.00
2018-12-04T01:18:05.048Z,9.00
2018-12-04T01:19:05.187Z,9.00
2018-12-04T01:20:04.812Z,9.00
2018-12-04T01:21:08.232Z,9.00
2018-12-04T01:22:05.306Z,9.00
2018-12-04T01:23:05.630Z,9.10
2018-12-04T01:24:04.804Z,9.10
2018-12-04T01:25:07.399Z,9.10
2018-12-04T01:26:05.308Z,9.10
2018-12-04T01:27:07.886Z,9.10
2018-12-04T01:28:04.806Z,9.10
2018-12-04T01:29:05.454Z,9.10
2018-12-04T01:30:05.551Z,9.10
2018-12-04T01:31:05.612Z,9.10
2018-12-04T01:32:04.732Z,9.20
2018-12-04T01:33:07.537Z,9.20
2018-12-04T01:34:08.079Z,9.20
2018-12-04T01:35:04.983Z,9.20
2018-12-04T01:36:05.157Z,9.20
2018-12-04T01:37:07.934Z,9.10
2018-12-04T01:38:07.417Z,9.20
2018-12-04T01:39:05.375Z,9.20
2018-12-04T01:40:11.958Z,9.20
2018-12-04T01:41:10.191Z,9.20
2018-12-04T01:42:04.807Z,9.20
2018-12-04T01:43:10.040Z,9.20
2018-12-04T01:44:05.474Z,9.20
2018-12-04T01:45:05.588Z,9.20
2018-12-04T01:46:04.647Z,9.10
2018-12-04T01:47:04.878Z,9.20
2018-12-04T01:48:04.995Z,9.10
2018-12-04T01:49:07.678Z,9.20
2018-12-04T01:50:07.175Z,9.20
2018-12-04T01:51:05.131Z,9.20
2018-12-04T01:52:04.754Z,9.20
2018-12-04T01:53:07.672Z,9.20
2018-12-04T01:54:08.090Z,9.20
2018-12-04T01:55:04.984Z,9.20
2018-12-04T01:56:05.160Z,9.20
2018-12-04T01:57:05.301Z,9.20
2018-12-04T01:58:05.597Z,9.20
2018-12-04T01:59:07.251Z,9.20
2018-12-04T02:00:05.236Z,9.20
2018-12-04T02:01:05.349Z,9.20
2018-12-04T02:02:07.928Z,9.20
2018-12-04T02:03:04.887Z,9.20
2018-12-04T02:04:05.002Z,9.30
2018-12-04T02:05:05.122Z,9.30
2018-12-04T02:06:05.270Z,9.20
2018-12-04T02:07:07.907Z,9.20
2018-12-04T02:08:04.871Z,9.20
2018-12-04T02:09:07.560Z,9.30
2018-12-04T02:10:05.517Z,9.30
2018-12-04T02:11:05.638Z,9.20
2018-12-04T02:12:07.303Z,9.30
2018-12-04T02:13:05.223Z,9.30
2018-12-04T02:14:05.341Z,9.20
2018-12-04T02:15:07.947Z,9.30
2018-12-04T02:16:07.442Z,9.30
2018-12-04T02:17:05.448Z,9.20
2018-12-04T02:18:05.612Z,9.30
2018-12-04T02:19:12.290Z,9.20
2018-12-04T02:20:05.249Z,9.20
2018-12-04T02:21:05.372Z,9.20
2018-12-04T02:22:08.004Z,9.20
2018-12-04T02:23:07.551Z,9.20
2018-12-04T02:24:12.022Z,9.20
2018-12-04T02:25:04.924Z,9.20
2018-12-04T02:26:05.029Z,9.20
2018-12-04T02:27:05.191Z,9.20
2018-12-04T02:28:07.842Z,9.20
2018-12-04T02:29:05.048Z,9.20
2018-12-04T02:30:05.157Z,9.20
2018-12-04T02:31:05.356Z,9.20
2018-12-04T02:32:07.982Z,9.20
2018-12-04T02:33:04.908Z,9.20
2018-12-04T02:34:07.652Z,9.20
2018-12-04T02:35:05.794Z,9.20
2018-12-04T02:36:04.983Z,9.20
2018-12-04T02:37:07.607Z,9.20
2018-12-04T02:38:05.530Z,9.20
2018-12-04T02:39:05.721Z,9.30
2018-12-04T02:40:04.848Z,9.20
2018-12-04T02:41:07.546Z,9.20
2018-12-04T02:42:05.720Z,9.20
2018-12-04T02:43:04.764Z,9.20
2018-12-04T02:44:07.604Z,9.20
2018-12-04T02:45:08.085Z,9.20
2018-12-04T02:46:05.090Z,9.20
2018-12-04T02:47:05.327Z,9.20
2018-12-04T02:48:05.428Z,9.20
2018-12-04T02:49:05.535Z,9.20
2018-12-04T02:50:05.594Z,9.20
2018-12-04T02:51:04.729Z,9.20
2018-12-04T02:52:05.001Z,9.30
2018-12-04T02:53:05.216Z,9.20
2018-12-04T02:54:05.345Z,9.20
2018-12-04T02:55:07.914Z,9.20
2018-12-04T02:56:07.558Z,9.20
2018-12-04T02:57:08.039Z,9.20
2018-12-04T02:58:04.918Z,9.20
2018-12-04T02:59:04.961Z,9.20
2018-12-04T03:00:05.571Z,9.20
2018-12-04T03:01:04.683Z,9.20
2018-12-04T03:02:07.308Z,9.20
2018-12-04T03:03:05.362Z,9.20
2018-12-04T03:04:05.474Z,9.30
2018-12-04T03:05:05.556Z,9.20
2018-12-04T03:06:08.118Z,9.30
2018-12-04T03:07:05.070Z,9.20
2018-12-04T03:08:05.164Z,9.30
2018-12-04T03:09:05.596Z,9.30
2018-12-04T03:10:07.307Z,9.30
2018-12-04T03:11:05.294Z,9.30
2018-12-04T03:12:05.404Z,9.20
2018-12-04T03:13:07.983Z,9.30
2018-12-04T03:14:07.445Z,9.30
2018-12-04T03:15:08.059Z,9.30
2018-12-04T03:16:04.982Z,9.20
2018-12-04T03:17:07.656Z,9.30
2018-12-04T03:18:08.208Z,9.30
2018-12-04T03:19:05.171Z,9.30
2018-12-04T03:20:05.423Z,9.30
2018-12-04T03:21:08.295Z,9.30
2018-12-04T03:22:05.360Z,9.30
2018-12-04T03:23:05.516Z,9.30
2018-12-04T03:24:12.090Z,9.30
2018-12-04T03:25:07.516Z,9.30
2018-12-04T03:26:05.497Z,9.30
2018-12-04T03:27:05.159Z,9.30
2018-12-04T03:28:05.485Z,9.30
2018-12-04T03:29:08.249Z,9.30
2018-12-04T03:30:05.157Z,9.30
2018-12-04T03:31:05.414Z,9.30
2018-12-04T03:32:05.522Z,9.40
2018-12-04T03:33:05.640Z,9.30
2018-12-04T03:34:07.304Z,9.30
2018-12-04T03:35:08.018Z,9.30
2018-12-04T03:36:04.981Z,9.30
2018-12-04T03:37:05.172Z,9.30
2018-12-04T03:38:07.945Z,9.30
2018-12-04T03:39:04.832Z,9.30
2018-12-04T03:40:07.420Z,9.30
2018-12-04T03:41:05.324Z,9.30
2018-12-04T03:42:07.994Z,9.30
2018-12-04T03:43:05.004Z,9.30
2018-12-04T03:44:05.200Z,9.30
2018-12-04T03:45:05.303Z,9.30
2018-12-04T03:46:05.503Z,9.30
2018-12-04T03:47:08.151Z,9.30
2018-12-04T03:48:10.203Z,9.30
2018-12-04T03:49:05.576Z,9.20
2018-12-04T03:50:08.146Z,9.30
2018-12-04T03:51:07.617Z,9.30
2018-12-04T03:52:05.528Z,9.30
2018-12-04T03:53:04.813Z,9.30
2018-12-04T03:54:07.525Z,9.30
2018-12-04T03:55:05.434Z,9.30
2018-12-04T03:56:08.051Z,9.30
2018-12-04T03:57:07.546Z,9.30
2018-12-04T03:58:08.123Z,9.30
2018-12-04T03:59:05.097Z,9.30
2018-12-04T04:00:05.225Z,9.20
2018-12-04T04:01:05.390Z,9.20
2018-12-04T04:02:07.989Z,9.30
2018-12-04T04:03:07.536Z,9.20
2018-12-04T04:04:08.110Z,9.20
2018-12-04T04:05:07.561Z,9.20
2018-12-04T04:06:05.471Z,9.20
2018-12-04T04:07:05.553Z,9.20
2018-12-04T04:08:05.603Z,9.20
2018-12-04T04:09:07.426Z,9.20
2018-12-04T04:10:05.331Z,9.20
2018-12-04T04:11:05.475Z,9.10
2018-12-04T04:12:05.526Z,9.10
2018-12-04T04:13:15.913Z,9.00
2018-12-04T04:14:07.405Z,9.00
2018-12-04T04:15:05.332Z,9.00
2018-12-04T04:16:05.505Z,9.00
2018-12-04T04:17:05.643Z,8.90
2018-12-04T04:18:04.795Z,8.90
2018-12-04T04:19:04.976Z,8.90
2018-12-04T04:20:05.039Z,8.80
2018-12-04T04:21:07.669Z,8.80
2018-12-04T04:22:05.694Z,8.80
2018-12-04T04:23:07.415Z,8.70
2018-12-04T04:24:05.469Z,8.70
2018-12-04T04:25:05.669Z,8.70
2018-12-04T04:26:04.823Z,8.70
2018-12-04T04:27:05.052Z,8.70
2018-12-04T04:28:05.195Z,8.70
2018-12-04T04:29:07.265Z,8.70
2018-12-04T04:30:07.689Z,8.60
2018-12-04T04:31:05.612Z,8.60
2018-12-04T04:32:04.732Z,8.60
2018-12-04T04:33:07.389Z,8.60
2018-12-04T04:34:05.317Z,8.60
2018-12-04T04:35:05.394Z,8.60
2018-12-04T04:36:08.080Z,8.60
2018-12-04T04:37:07.642Z,8.60
2018-12-04T04:38:09.930Z,8.60
2018-12-04T04:39:05.010Z,8.50
2018-12-04T04:40:05.044Z,8.60
2018-12-04T04:41:05.260Z,8.60
2018-12-04T04:42:07.950Z,8.60
2018-12-04T04:43:07.442Z,8.50
2018-12-04T04:44:05.433Z,8.60
2018-12-04T04:45:05.689Z,8.50
2018-12-04T04:46:04.934Z,8.60
2018-12-04T04:47:05.067Z,8.60
2018-12-04T04:48:05.223Z,8.60
2018-12-04T04:49:07.959Z,8.60
2018-12-04T04:50:07.362Z,8.50
2018-12-04T04:51:05.249Z,8.60
2018-12-04T04:52:05.343Z,8.60
2018-12-04T04:53:05.412Z,8.60
2018-12-04T04:54:08.031Z,8.50
2018-12-04T04:55:07.510Z,8.60
2018-12-04T04:56:08.000Z,8.60
2018-12-04T04:57:07.541Z,8.50
2018-12-04T04:58:05.630Z,8.50
2018-12-04T04:59:04.817Z,8.60
2018-12-04T05:00:04.961Z,8.60
2018-12-04T05:01:05.149Z,8.60
2018-12-04T05:02:07.908Z,8.50
2018-12-04T05:03:04.846Z,8.50
2018-12-04T05:04:04.958Z,8.60
2018-12-04T05:05:05.081Z,8.50
2018-12-04T05:06:05.257Z,8.50
2018-12-04T05:07:05.340Z,8.50
2018-12-04T05:08:08.041Z,8.50
2018-12-04T05:09:07.617Z,8.50
2018-12-04T05:10:08.028Z,8.50
2018-12-04T05:11:04.981Z,8.50
2018-12-04T05:12:07.562Z,8.50
2018-12-04T05:13:05.507Z,8.50
2018-12-04T05:14:05.633Z,8.50
2018-12-04T05:15:07.302Z,8.40
2018-12-04T05:16:05.223Z,8.40
2018-12-04T05:17:05.431Z,8.40
2018-12-04T05:18:05.549Z,8.40
2018-12-04T05:19:05.754Z,8.40
2018-12-04T05:20:04.887Z,8.40
2018-12-04T05:21:04.893Z,8.40
2018-12-04T05:22:05.026Z,8.40
2018-12-04T05:23:05.089Z,8.40
2018-12-04T05:24:05.362Z,8.40
2018-12-04T05:25:08.587Z,8.30
2018-12-04T05:26:05.590Z,8.30
2018-12-04T05:27:04.682Z,8.30
2018-12-04T05:28:04.798Z,8.30
2018-12-04T05:29:05.381Z,8.30
2018-12-04T05:30:07.924Z,8.20
2018-12-04T05:31:04.906Z,8.20
2018-12-04T05:32:04.958Z,8.20
2018-12-04T05:33:05.207Z,8.20
2018-12-04T05:34:05.325Z,8.10
2018-12-04T05:35:05.478Z,8.10
2018-12-04T05:36:05.693Z,8.10
2018-12-04T05:37:04.816Z,8.10
2018-12-04T05:38:05.078Z,8.10
2018-12-04T05:39:05.289Z,8.00
2018-12-04T05:40:05.448Z,8.00
2018-12-04T05:41:08.015Z,8.00
2018-12-04T05:42:07.523Z,7.90
2018-12-04T05:43:05.640Z,7.90
2018-12-04T05:44:04.774Z,7.90
2018-12-04T05:45:07.341Z,7.90
2018-12-04T05:46:07.978Z,7.80
2018-12-04T05:47:07.545Z,7.90
2018-12-04T05:48:05.531Z,7.80
2018-12-04T05:49:04.819Z,7.80
2018-12-04T05:50:04.876Z,7.80
2018-12-04T05:51:05.374Z,7.80
2018-12-04T05:52:05.409Z,7.70
2018-12-04T05:53:05.511Z,7.70
2018-12-04T05:54:08.252Z,7.60
2018-12-04T05:55:05.151Z,7.70
2018-12-04T05:56:05.237Z,7.60
2018-12-04T05:57:07.979Z,7.60
2018-12-04T05:58:07.662Z,7.50
2018-12-04T05:59:04.666Z,7.60
2018-12-04T06:00:04.730Z,7.50
2018-12-04T06:01:04.761Z,7.50
2018-12-04T06:02:04.771Z,7.50
2018-12-04T06:03:04.901Z,7.50
2018-12-04T06:04:04.914Z,7.40
2018-12-04T06:05:04.993Z,7.40
2018-12-04T06:06:05.154Z,7.40
2018-12-04T06:07:05.207Z,7.40
2018-12-04T06:08:05.335Z,7.40
2018-12-04T06:09:07.964Z,7.40
2018-12-04T06:10:07.505Z,7.30
2018-12-04T06:11:07.966Z,7.30
2018-12-04T06:12:04.902Z,7.30
2018-12-04T06:13:04.969Z,7.30
2018-12-04T06:14:05.046Z,7.30
2018-12-04T06:15:07.795Z,7.30
2018-12-04T06:16:07.378Z,7.30
2018-12-04T06:17:07.948Z,7.30
2018-12-04T06:18:05.037Z,7.30
2018-12-04T06:19:05.125Z,7.30
2018-12-04T06:20:07.748Z,7.30
2018-12-04T06:21:07.735Z,7.20
2018-12-04T06:22:07.272Z,7.20
2018-12-04T06:23:07.733Z,7.20
2018-12-04T06:24:04.813Z,7.20
2018-12-04T06:25:04.994Z,7.20
2018-12-04T06:26:07.640Z,7.20
2018-12-04T06:27:08.213Z,7.20
2018-12-04T06:28:05.212Z,7.20
2018-12-04T06:29:05.568Z,7.10
2018-12-04T06:30:05.719Z,7.20
2018-12-04T06:31:04.919Z,7.20
2018-12-04T06:32:07.529Z,7.20
2018-12-04T06:33:05.564Z,7.20
2018-12-04T06:34:05.693Z,7.20
2018-12-04T06:35:07.314Z,7.20
2018-12-04T06:36:05.426Z,7.20
2018-12-04T06:37:05.524Z,7.10
2018-12-04T06:38:08.075Z,7.20
2018-12-04T06:39:04.940Z,7.10
2018-12-04T06:40:05.129Z,7.20
2018-12-04T06:41:07.783Z,7.20
2018-12-04T06:42:04.915Z,7.10
2018-12-04T06:43:07.744Z,7.20
2018-12-04T06:44:04.730Z,7.10
2018-12-04T06:45:07.343Z,7.10
2018-12-04T06:46:07.871Z,7.10
2018-12-04T06:47:04.917Z,7.10
2018-12-04T06:48:04.968Z,7.20
2018-12-04T06:49:05.134Z,7.10
2018-12-04T06:50:10.302Z,7.10
2018-12-04T06:51:07.299Z,7.10
2018-12-04T06:52:05.242Z,7.10
2018-12-04T06:53:07.896Z,7.10
2018-12-04T06:54:04.840Z,7.10
2018-12-04T06:55:04.918Z,7.10
2018-12-04T06:56:04.989Z,7.10
2018-12-04T06:57:07.665Z,7.10
2018-12-04T06:58:05.711Z,7.10
2018-12-04T06:59:08.100Z,7.10
2018-12-04T07:00:07.569Z,7.10
2018-12-04T07:01:05.590Z,7.10
2018-12-04T07:02:04.733Z,7.00
2018-12-04T07:03:04.906Z,7.10
2018-12-04T07:04:04.953Z,7.10
2018-12-04T07:05:07.677Z,7.00
2018-12-04T07:06:04.829Z,7.00
2018-12-04T07:07:04.984Z,7.00
2018-12-04T07:08:05.047Z,7.00
2018-12-04T07:09:05.112Z,7.00
2018-12-04T07:10:05.155Z,7.00
2018-12-04T07:11:07.778Z,7.00
2018-12-04T07:12:04.767Z,7.00
2018-12-04T07:13:04.987Z,7.00
2018-12-04T07:14:05.192Z,7.10
2018-12-04T07:15:05.514Z,7.00
2018-12-04T07:16:05.601Z,7.00
2018-12-04T07:17:04.775Z,7.00
2018-12-04T07:18:07.434Z,7.00
2018-12-04T07:19:05.472Z,7.00
2018-12-04T07:20:12.161Z,6.90
2018-12-04T07:21:05.206Z,6.90
2018-12-04T07:22:07.814Z,6.90
2018-12-04T07:23:07.660Z,6.90
2018-12-04T07:24:05.613Z,6.90
2018-12-04T07:25:07.307Z,6.90
2018-12-04T07:26:10.320Z,6.80
2018-12-04T07:27:04.754Z,6.80
2018-12-04T07:28:04.863Z,6.80
2018-12-04T07:29:05.195Z,6.80
2018-12-04T07:30:05.283Z,6.80
2018-12-04T07:31:05.465Z,6.80
2018-12-04T07:32:08.163Z,6.80
2018-12-04T07:33:05.139Z,6.80
2018-12-04T07:34:07.796Z,6.80
2018-12-04T07:35:04.765Z,6.80
2018-12-04T07:36:04.918Z,6.80
2018-12-04T07:37:07.647Z,6.70
2018-12-04T07:38:13.478Z,6.70
2018-12-04T07:39:05.490Z,6.80
2018-12-04T07:40:05.614Z,6.80
2018-12-04T07:41:04.833Z,6.80
2018-12-04T07:42:04.950Z,6.80
2018-12-04T07:43:07.546Z,6.80
2018-12-04T07:44:05.503Z,6.70
2018-12-04T07:45:08.125Z,6.70
2018-12-04T07:46:07.667Z,6.70
2018-12-04T07:47:05.623Z,6.70
2018-12-04T07:48:04.706Z,6.70
2018-12-04T07:49:04.723Z,6.70
2018-12-04T07:50:07.436Z,6.70
2018-12-04T07:51:05.463Z,6.70
2018-12-04T07:52:08.186Z,6.70
2018-12-04T07:53:05.124Z,6.70
2018-12-04T07:54:05.359Z,6.70
2018-12-04T07:55:12.182Z,6.70
2018-12-04T07:56:05.198Z,6.70
2018-12-04T07:57:10.488Z,6.70
2018-12-04T07:58:07.559Z,6.70
2018-12-04T07:59:07.975Z,6.80
2018-12-04T08:00:05.062Z,6.80
2018-12-04T08:01:07.736Z,6.80
2018-12-04T08:02:04.750Z,6.70
2018-12-04T08:03:05.147Z,6.80
2018-12-04T08:04:07.841Z,6.80
2018-12-04T08:05:04.826Z,6.80
2018-12-04T08:06:04.922Z,6.80
2018-12-04T08:07:05.065Z,6.80
2018-12-04T08:08:07.938Z,6.80
2018-12-04T08:09:07.413Z,6.80
2018-12-04T08:10:05.542Z,6.80
2018-12-04T08:11:08.293Z,6.80
2018-12-04T08:12:05.362Z,6.80
2018-12-04T08:13:12.077Z,6.80
2018-12-04T08:14:05.143Z,6.80
2018-12-04T08:15:07.948Z,6.80
2018-12-04T08:16:04.901Z,6.80
2018-12-04T08:17:05.176Z,6.80
2018-12-04T08:18:05.456Z,6.80
2018-12-04T08:19:08.058Z,6.80
2018-12-04T08:20:05.058Z,6.80
2018-12-04T08:21:07.651Z,6.80
2018-12-04T08:22:13.314Z,6.80
2018-12-04T08:23:07.817Z,6.80
2018-12-04T08:24:04.787Z,6.80
2018-12-04T08:25:04.894Z,6.90
2018-12-04T08:26:05.059Z,6.80
2018-12-04T08:27:05.207Z,6.90
2018-12-04T08:28:05.285Z,6.90
2018-12-04T08:29:04.695Z,6.90
2018-12-04T08:30:04.845Z,6.90
2018-12-04T08:31:07.504Z,6.90
2018-12-04T08:32:05.503Z,6.90
2018-12-04T08:33:08.192Z,6.90
2018-12-04T08:34:10.283Z,6.90
2018-12-04T08:35:04.755Z,6.90
2018-12-04T08:36:04.886Z,6.90
2018-12-04T08:37:04.997Z,6.90
2018-12-04T08:38:07.665Z,6.90
2018-12-04T08:39:05.605Z,6.90
2018-12-04T08:40:07.610Z,7.00
2018-12-04T08:41:05.525Z,7.00
2018-12-04T08:42:05.751Z,6.90
2018-12-04T08:43:07.522Z,7.00
2018-12-04T08:44:08.151Z,7.00
2018-12-04T08:45:05.234Z,6.90
2018-12-04T08:46:05.395Z,7.00
2018-12-04T08:47:08.047Z,7.00
2018-12-04T08:48:07.670Z,7.00
2018-12-04T08:49:04.744Z,7.00
2018-12-04T08:50:09.937Z,7.00
2018-12-04T08:51:04.892Z,7.00
2018-12-04T08:52:05.018Z,7.00
2018-12-04T08:53:05.250Z,7.00
2018-12-04T08:54:07.878Z,7.00
2018-12-04T08:55:04.773Z,7.00
2018-12-04T08:56:04.928Z,7.00
2018-12-04T08:57:05.175Z,7.00
2018-12-04T08:58:05.352Z,7.00
2018-12-04T08:59:09.928Z,7.00
2018-12-04T09:00:07.509Z,7.00
2018-12-04T09:01:05.507Z,7.00
2018-12-04T09:02:05.640Z,7.10
2018-12-04T09:03:04.843Z,7.10
2018-12-04T09:04:04.908Z,7.10
2018-12-04T09:05:10.088Z,7.10
2018-12-04T09:06:07.709Z,7.10
2018-12-04T09:07:06.477Z,7.10
2018-12-04T09:08:09.249Z,7.10
2018-12-04T09:09:08.186Z,7.10
2018-12-04T09:10:07.850Z,7.20
2018-12-04T09:11:04.932Z,7.20
2018-12-04T09:12:05.047Z,7.10
2018-12-04T09:13:05.158Z,7.10
2018-12-04T09:14:08.004Z,7.20
2018-12-04T09:15:05.120Z,7.20
2018-12-04T09:16:05.256Z,7.20
2018-12-04T09:17:07.998Z,7.20
2018-12-04T09:18:05.017Z,7.20
2018-12-04T09:19:07.698Z,7.20
2018-12-04T09:20:04.737Z,7.20
2018-12-04T09:21:07.562Z,7.20
2018-12-04T09:22:04.760Z,7.20
2018-12-04T09:23:04.967Z,7.20
2018-12-04T09:24:05.068Z,7.20
2018-12-04T09:25:05.367Z,7.20
2018-12-04T09:26:05.709Z,7.20
2018-12-04T09:27:05.590Z,7.30
2018-12-04T09:28:04.935Z,7.20
2018-12-04T09:29:04.758Z,7.20
2018-12-04T09:30:04.928Z,7.20
2018-12-04T09:31:05.066Z,7.30
2018-12-04T09:32:07.793Z,7.30
2018-12-04T09:33:04.786Z,7.20
2018-12-04T09:34:07.465Z,7.30
2018-12-04T09:35:12.192Z,7.30
2018-12-04T09:36:05.233Z,7.30
2018-12-04T09:37:05.404Z,7.30
2018-12-04T09:38:08.157Z,7.30
2018-12-04T09:39:07.553Z,7.30
2018-12-04T09:40:05.486Z,7.30
2018-12-04T09:41:05.523Z,7.40
2018-12-04T09:42:05.572Z,7.30
2018-12-04T09:43:04.687Z,7.40
2018-12-04T09:44:04.839Z,7.40
2018-12-04T09:45:05.115Z,7.40
2018-12-04T09:46:05.213Z,7.40
2018-12-04T09:47:05.382Z,7.40
2018-12-04T09:48:05.479Z,7.40
2018-12-04T09:49:05.712Z,7.40
2018-12-04T09:50:07.458Z,7.30
2018-12-04T09:51:05.404Z,7.30
2018-12-04T09:52:08.162Z,7.30
2018-12-04T09:53:05.065Z,7.30
2018-12-04T09:54:07.843Z,7.30
2018-12-04T09:55:04.921Z,7.30
2018-12-04T09:56:05.161Z,7.30
2018-12-04T09:57:05.366Z,7.30
2018-12-04T09:58:05.680Z,7.20
2018-12-04T09:59:04.693Z,7.30
2018-12-04T10:00:04.820Z,7.20
2018-12-04T10:01:05.057Z,7.30
2018-12-04T10:02:05.391Z,7.20
2018-12-04T10:03:05.546Z,7.20
2018-12-04T10:04:05.612Z,7.20
2018-12-04T10:05:04.697Z,7.20
2018-12-04T10:06:04.735Z,7.20
2018-12-04T10:07:05.231Z,7.30
2018-12-04T10:08:05.382Z,7.30
2018-12-04T10:09:05.621Z,7.20
2018-12-04T10:10:04.791Z,7.30
2018-12-04T10:11:04.875Z,7.30
2018-12-04T10:12:07.449Z,7.30
2018-12-04T10:13:05.464Z,7.30
2018-12-04T10:14:05.565Z,7.30
2018-12-04T10:15:04.833Z,7.30
2018-12-04T10:16:05.056Z,7.30
2018-12-04T10:17:05.301Z,7.40
2018-12-04T10:18:07.951Z,7.40
2018-12-04T10:19:04.823Z,7.40
2018-12-04T10:20:05.094Z,7.40
2018-12-04T10:21:05.214Z,7.40
2018-12-04T10:22:04.781Z,7.40
2018-12-04T10:23:05.513Z,7.40
2018-12-04T10:24:05.703Z,7.40
2018-12-04T10:25:04.814Z,7.50
2018-12-04T10:26:07.932Z,7.40
2018-12-04T10:27:04.913Z,7.50
2018-12-04T10:28:07.529Z,7.50
2018-12-04T10:29:07.973Z,7.50
2018-12-04T10:30:04.887Z,7.50
2018-12-04T10:31:05.480Z,7.50
2018-12-04T10:32:08.192Z,7.50
2018-12-04T10:33:07.813Z,7.50
2018-12-04T10:34:04.798Z,7.50
2018-12-04T10:35:10.070Z,7.50
2018-12-04T10:36:05.200Z,7.50
2018-12-04T10:37:07.821Z,7.50
2018-12-04T10:38:04.786Z,7.50
2018-12-04T10:39:04.913Z,7.50
2018-12-04T10:40:04.997Z,7.50
2018-12-04T10:41:08.087Z,7.50
2018-12-04T10:42:05.132Z,7.50
2018-12-04T10:43:07.945Z,7.50
2018-12-04T10:44:04.936Z,7.50
2018-12-04T10:45:07.552Z,7.50
2018-12-04T10:46:05.544Z,7.60
2018-12-04T10:47:05.631Z,7.60
2018-12-04T10:48:07.299Z,7.60
2018-12-04T10:49:05.209Z,7.60
2018-12-04T10:50:07.747Z,7.60
2018-12-04T10:51:07.194Z,7.50
2018-12-04T10:52:05.101Z,7.60
2018-12-04T10:53:05.682Z,7.60
2018-12-04T10:54:07.438Z,7.50
2018-12-04T10:55:07.913Z,7.50
2018-12-04T10:56:07.453Z,7.60
2018-12-04T10:57:09.741Z,7.50
2018-12-04T10:58:04.980Z,7.50
2018-12-04T10:59:05.045Z,7.50
2018-12-04T11:00:05.976Z,7.60
2018-12-04T11:01:05.144Z,7.60
2018-12-04T11:02:07.835Z,7.50
2018-12-04T11:03:09.764Z,7.50
2018-12-04T11:04:07.284Z,7.60
2018-12-04T11:05:05.321Z,7.50
2018-12-04T11:06:08.034Z,7.60
2018-12-04T11:07:04.907Z,7.60
2018-12-04T11:08:04.996Z,7.50
2018-12-04T11:09:05.242Z,7.50
2018-12-04T11:10:07.960Z,7.50
2018-12-04T11:11:05.097Z,7.50
2018-12-04T11:12:12.304Z,7.50
2018-12-04T11:13:05.414Z,7.50
2018-12-04T11:14:05.587Z,7.60
2018-12-04T11:15:08.381Z,7.60
2018-12-04T11:16:05.349Z,7.60
2018-12-04T11:17:05.564Z,7.60
2018-12-04T11:18:04.735Z,7.70
2018-12-04T11:19:04.807Z,7.60
2018-12-04T11:20:10.134Z,7.70
2018-12-04T11:21:05.140Z,7.70
2018-12-04T11:22:05.378Z,7.70
2018-12-04T11:23:05.519Z,7.70
2018-12-04T11:24:05.630Z,7.70
2018-12-04T11:25:07.382Z,7.70
2018-12-04T11:26:05.419Z,7.70
2018-12-04T11:27:08.016Z,7.70
2018-12-04T11:28:05.024Z,7.70
2018-12-04T11:29:05.530Z,7.70
2018-12-04T11:30:05.660Z,7.70
2018-12-04T11:31:04.862Z,7.80
2018-12-04T11:32:05.000Z,7.80
2018-12-04T11:33:05.199Z,7.80
2018-12-04T11:34:05.225Z,7.80
2018-12-04T11:35:05.326Z,7.80
2018-12-04T11:36:05.392Z,7.80
2018-12-04T11:37:05.652Z,7.90
2018-12-04T11:38:04.907Z,7.80
2018-12-04T11:39:07.539Z,7.90
2018-12-04T11:40:05.457Z,7.80
2018-12-04T11:41:05.567Z,7.90
2018-12-04T11:42:05.610Z,7.90
2018-12-04T11:43:04.741Z,7.90
2018-12-04T11:44:07.356Z,7.90
2018-12-04T11:45:05.257Z,7.80
2018-12-04T11:46:07.832Z,7.80
2018-12-04T11:47:04.775Z,7.80
2018-12-04T11:48:04.898Z,7.80
2018-12-04T11:49:05.340Z,7.80
2018-12-04T11:50:07.995Z,7.80
2018-12-04T11:51:04.916Z,7.80
2018-12-04T11:52:07.514Z,7.70
2018-12-04T11:53:05.439Z,7.70
2018-12-04T11:54:08.206Z,7.70
2018-12-04T11:55:05.249Z,7.70
2018-12-04T11:56:07.868Z,7.60
2018-12-04T11:57:04.788Z,7.60
2018-12-04T11:58:04.992Z,7.60
2018-12-04T11:59:05.162Z,7.50
2018-12-04T12:00:05.302Z,7.50
2018-12-04T12:01:05.537Z,7.50
2018-12-04T12:02:04.757Z,7.50
2018-12-04T12:03:05.104Z,7.50
2018-12-04T12:04:05.297Z,7.50
2018-12-04T12:05:05.471Z,7.50
2018-12-04T12:06:10.702Z,7.50
2018-12-04T12:07:07.793Z,7.50
2018-12-04T12:08:04.861Z,7.50
2018-12-04T12:09:05.054Z,7.50
2018-12-04T12:10:05.257Z,7.50
2018-12-04T12:11:08.175Z,7.50
2018-12-04T12:12:05.147Z,7.50
2018-12-04T12:13:05.297Z,7.50
2018-12-04T12:14:05.356Z,7.50
2018-12-04T12:15:05.442Z,7.50
2018-12-04T12:16:07.228Z,7.50
2018-12-04T12:17:07.687Z,7.50
2018-12-04T12:18:05.700Z,7.50
2018-12-04T12:19:04.796Z,7.50
2018-12-04T12:20:07.408Z,7.50
2018-12-04T12:21:07.874Z,7.40
2018-12-04T12:22:07.342Z,7.40
2018-12-04T12:23:10.324Z,7.40
2018-12-04T12:24:10.373Z,7.40
2018-12-04T12:25:07.787Z,7.40
2018-12-04T12:26:04.796Z,7.40
2018-12-04T12:27:04.925Z,7.40
2018-12-04T12:28:05.157Z,7.40
2018-12-04T12:29:10.652Z,7.30
2018-12-04T12:30:05.107Z,7.30
2018-12-04T12:31:05.258Z,7.30
2018-12-04T12:32:08.004Z,7.30
2018-12-04T12:33:07.463Z,7.30
2018-12-04T12:34:08.132Z,7.30
2018-12-04T12:35:05.220Z,7.20
2018-12-04T12:36:07.886Z,7.20
2018-12-04T12:37:04.780Z,7.20
2018-12-04T12:38:07.377Z,7.20
2018-12-04T12:39:05.307Z,7.20
2018-12-04T12:40:05.343Z,7.10
2018-12-04T12:41:05.551Z,7.10
2018-12-04T12:42:04.689Z,7.10
2018-12-04T12:43:07.675Z,7.10
2018-12-04T12:44:05.605Z,7.10
2018-12-04T12:45:07.359Z,7.10
2018-12-04T12:46:05.317Z,7.10
2018-12-04T12:47:05.296Z,7.00
2018-12-04T12:48:07.884Z,7.00
2018-12-04T12:49:04.780Z,7.00
2018-12-04T12:50:04.807Z,7.00
2018-12-04T12:51:04.915Z,7.00
2018-12-04T12:52:05.042Z,6.90
2018-12-04T12:53:05.258Z,6.90
2018-12-04T12:54:05.450Z,6.90
2018-12-04T12:55:05.534Z,6.90
2018-12-04T12:56:05.785Z,6.90
2018-12-04T12:57:04.919Z,6.90
2018-12-04T12:58:04.986Z,6.90
2018-12-04T12:59:07.552Z,6.90
2018-12-04T13:00:05.492Z,6.90
2018-12-04T13:01:05.630Z,6.90
2018-12-04T13:02:04.975Z,7.00
2018-12-04T13:03:07.693Z,7.00
2018-12-04T13:04:04.732Z,7.00
2018-12-04T13:05:04.797Z,7.00
2018-12-04T13:06:07.531Z,7.00
2018-12-04T13:07:05.639Z,7.00
2018-12-04T13:08:04.787Z,7.10
2018-12-04T13:09:04.888Z,7.10
2018-12-04T13:10:05.107Z,7.10
2018-12-04T13:11:07.872Z,7.10
2018-12-04T13:12:04.898Z,7.10
2018-12-04T13:13:04.890Z,7.10
2018-12-04T13:14:04.964Z,7.10
2018-12-04T13:15:04.974Z,7.20
2018-12-04T13:16:07.679Z,7.20
2018-12-04T13:17:05.666Z,7.20
2018-12-04T13:18:04.729Z,7.20